sensor_id;sensor_type;location;lat;lon;timestamp;temperature;humidity
2489;DHT22;1255;48.716;9.124;2024-03-23T00:55:15;10.60;99.90
2489;DHT22;1255;48.716;9.124;2024-03-23T00:57:42;10.60;99.90
2489;DHT22;1255;48.716;9.124;2024-03-23T01:00:08;10.60;99.90
2489;DHT22;1255;48.716;9.124;2024-03-23T01:02:36;10.70;99.90
2489;DHT22;1255;48.716;9.124;2024-03-23T01:05:02;10.70;99.90
2489;DHT22;1255;48.716;9.124;2024-03-23T01:07:29;10.80;99.90
2489;DHT22;1255;48.716;9.124;2024-03-23T01:09:56;10.80;99.90
2489;DHT22;1255;48.716;9.124;2024-03-23T01:12:22;10.80;99.90
2489;DHT22;1255;48.716;9.124;2024-03-23T01:14:48;10.80;99.90
2489;DHT22;1255;48.716;9.124;2024-03-23T01:17:15;10.80;99.90
2489;DHT22;1255;48.716;9.124;2024-03-23T01:19:40;10.80;99.90
2489;DHT22;1255;48.716;9.124;2024-03-23T01:22:08;10.80;99.90
2489;DHT22;1255;48.716;9.124;2024-03-23T01:24:35;10.70;99.90
2489;DHT22;1255;48.716;9.124;2024-03-23T01:27:03;10.70;99.90
2489;DHT22;1255;48.716;9.124;2024-03-23T01:29:29;10.80;99.90
2489;DHT22;1255;48.716;9.124;2024-03-23T01:31:56;10.70;99.90
2489;DHT22;1255;48.716;9.124;2024-03-23T01:34:22;10.70;99.90
2489;DHT22;1255;48.716;9.124;2024-03-23T01:36:50;10.70;99.90
2489;DHT22;1255;48.716;9.124;2024-03-23T01:39:16;10.70;99.90
2489;DHT22;1255;48.716;9.124;2024-03-23T01:41:42;10.60;99.90
2489;DHT22;1255;48.716;9.124;2024-03-23T01:44:10;10.70;99.90
2489;DHT22;1255;48.716;9.124;2024-03-23T01:46:37;10.70;99.90
2489;DHT22;1255;48.716;9.124;2024-03-23T01:49:03;10.70;99.90
2489;DHT22;1255;48.716;9.124;2024-03-23T01:51:30;10.60;99.90
2489;DHT22;1255;48.716;9.124;2024-03-23T01:53:58;10.50;99.90
2489;DHT22;1255;48.716;9.124;2024-03-23T01:56:26;10.50;99.90
2489;DHT22;1255;48.716;9.124;2024-03-23T01:58:52;10.40;99.90
2489;DHT22;1255;48.716;9.124;2024-03-23T02:01:20;10.30;99.90
2489;DHT22;1255;48.716;9.124;2024-03-23T02:03:46;10.30;99.90
2489;DHT22;1255;48.716;9.124;2024-03-23T02:06:13;10.30;99.90
2489;DHT22;1255;48.716;9.124;2024-03-23T02:08:39;10.30;99.90
2489;DHT22;1255;48.716;9.124;2024-03-23T02:11:06;10.30;99.90
2489;DHT22;1255;48.716;9.124;2024-03-23T02:13:32;10.30;99.90
2489;DHT22;1255;48.716;9.124;2024-03-23T02:15:58;10.30;99.90
2489;DHT22;1255;48.716;9.124;2024-03-23T02:18:25;10.30;99.90
2489;DHT22;1255;48.716;9.124;2024-03-23T02:20:52;10.30;99.90
2489;DHT22;1255;48.716;9.124;2024-03-23T02:23:19;10.30;99.90
2489;DHT22;1255;48.716;9.124;2024-03-23T02:25:46;10.30;99.90
2489;DHT22;1255;48.716;9.124;2024-03-23T02:28:12;10.30;99.90
2489;DHT22;1255;48.716;9.124;2024-03-23T02:30:39;10.30;99.90
2489;DHT22;1255;48.716;9.124;2024-03-23T02:33:05;10.40;99.90
2489;DHT22;1255;48.716;9.124;2024-03-23T02:35:32;10.40;99.90
2489;DHT22;1255;48.716;9.124;2024-03-23T02:37:58;10.40;99.90
2489;DHT22;1255;48.716;9.124;2024-03-23T02:40:28;10.50;99.90
2489;DHT22;1255;48.716;9.124;2024-03-23T02:42:54;10.60;99.90
2489;DHT22;1255;48.716;9.124;2024-03-23T02:45:21;10.60;99.90
2489;DHT22;1255;48.716;9.124;2024-03-23T02:47:46;10.60;99.90
2489;DHT22;1255;48.716;9.124;2024-03-23T02:50:17;10.60;99.90
2489;DHT22;1255;48.716;9.124;2024-03-23T02:52:43;10.70;99.90
2489;DHT22;1255;48.716;9.124;2024-03-23T02:55:10;10.70;99.90
2489;DHT22;1255;48.716;9.124;2024-03-23T02:57:37;10.70;99.90
2489;DHT22;1255;48.716;9.124;2024-03-23T03:00:05;10.70;99.90
2489;DHT22;1255;48.716;9.124;2024-03-23T03:02:32;10.70;99.90
2489;DHT22;1255;48.716;9.124;2024-03-23T03:04:58;10.70;99.90
2489;DHT22;1255;48.716;9.124;2024-03-23T03:07:24;10.70;99.90
2489;DHT22;1255;48.716;9.124;2024-03-23T03:09:51;10.70;99.90
2489;DHT22;1255;48.716;9.124;2024-03-23T03:12:16;10.70;99.90
2489;DHT22;1255;48.716;9.124;2024-03-23T03:14:44;10.60;99.90
2489;DHT22;1255;48.716;9.124;2024-03-23T03:17:10;10.60;99.90
2489;DHT22;1255;48.716;9.124;2024-03-23T03:19:37;10.60;99.90
2489;DHT22;1255;48.716;9.124;2024-03-23T03:22:03;10.50;99.90
2489;DHT22;1255;48.716;9.124;2024-03-23T03:24:29;10.50;99.90
2489;DHT22;1255;48.716;9.124;2024-03-23T03:26:55;10.50;99.90
2489;DHT22;1255;48.716;9.124;2024-03-23T03:29:23;10.50;99.90
2489;DHT22;1255;48.716;9.124;2024-03-23T03:31:50;10.40;99.90
2489;DHT22;1255;48.716;9.124;2024-03-23T03:34:16;10.40;99.90
2489;DHT22;1255;48.716;9.124;2024-03-23T03:36:42;10.30;99.90
2489;DHT22;1255;48.716;9.124;2024-03-23T03:39:09;10.30;99.90
2489;DHT22;1255;48.716;9.124;2024-03-23T03:41:35;10.30;99.90
2489;DHT22;1255;48.716;9.124;2024-03-23T03:44:02;10.30;99.90
2489;DHT22;1255;48.716;9.124;2024-03-23T03:46:28;10.30;99.90
2489;DHT22;1255;48.716;9.124;2024-03-23T03:48:56;10.30;99.90
2489;DHT22;1255;48.716;9.124;2024-03-23T03:51:21;10.20;99.90
2489;DHT22;1255;48.716;9.124;2024-03-23T03:53:48;10.20;99.90
2489;DHT22;1255;48.716;9.124;2024-03-23T03:56:14;10.10;99.90
2489;DHT22;1255;48.716;9.124;2024-03-23T03:58:40;10.10;99.90
2489;DHT22;1255;48.716;9.124;2024-03-23T04:01:06;10.10;99.90
2489;DHT22;1255;48.716;9.124;2024-03-23T04:03:34;10.00;99.90
2489;DHT22;1255;48.716;9.124;2024-03-23T04:06:01;9.90;99.90
2489;DHT22;1255;48.716;9.124;2024-03-23T04:08:28;9.90;99.90
2489;DHT22;1255;48.716;9.124;2024-03-23T04:10:54;9.80;99.90
2489;DHT22;1255;48.716;9.124;2024-03-23T04:13:21;9.80;99.90
2489;DHT22;1255;48.716;9.124;2024-03-23T04:15:46;9.80;99.90
2489;DHT22;1255;48.716;9.124;2024-03-23T04:18:13;9.80;99.90
2489;DHT22;1255;48.716;9.124;2024-03-23T04:20:39;9.80;99.90
2489;DHT22;1255;48.716;9.124;2024-03-23T04:23:08;9.80;99.90
2489;DHT22;1255;48.716;9.124;2024-03-23T04:25:33;9.80;99.90
2489;DHT22;1255;48.716;9.124;2024-03-23T04:28:00;9.80;99.90
2489;DHT22;1255;48.716;9.124;2024-03-23T04:30:26;9.70;99.90
2489;DHT22;1255;48.716;9.124;2024-03-23T04:32:54;9.70;99.90
2489;DHT22;1255;48.716;9.124;2024-03-23T04:35:20;9.70;99.90
2489;DHT22;1255;48.716;9.124;2024-03-23T04:37:47;9.80;99.90
2489;DHT22;1255;48.716;9.124;2024-03-23T04:40:15;9.70;99.90
2489;DHT22;1255;48.716;9.124;2024-03-23T04:42:42;9.70;99.90
2489;DHT22;1255;48.716;9.124;2024-03-23T04:45:09;9.80;99.90
2489;DHT22;1255;48.716;9.124;2024-03-23T04:47:37;9.90;99.90
2489;DHT22;1255;48.716;9.124;2024-03-23T04:50:04;10.00;99.90
2489;DHT22;1255;48.716;9.124;2024-03-23T04:52:31;10.10;99.90
2489;DHT22;1255;48.716;9.124;2024-03-23T04:54:57;10.20;99.90
2489;DHT22;1255;48.716;9.124;2024-03-23T04:57:25;10.30;99.90
2489;DHT22;1255;48.716;9.124;2024-03-23T04:59:51;10.30;99.90
2489;DHT22;1255;48.716;9.124;2024-03-23T05:02:17;10.30;99.90
2489;DHT22;1255;48.716;9.124;2024-03-23T05:04:43;10.30;99.90
2489;DHT22;1255;48.716;9.124;2024-03-23T05:07:10;10.30;99.90
2489;DHT22;1255;48.716;9.124;2024-03-23T05:09:37;10.20;99.90
2489;DHT22;1255;48.716;9.124;2024-03-23T05:12:03;10.20;99.90
2489;DHT22;1255;48.716;9.124;2024-03-23T05:14:31;10.10;99.90
2489;DHT22;1255;48.716;9.124;2024-03-23T05:16:58;10.10;99.90
2489;DHT22;1255;48.716;9.124;2024-03-23T05:19:23;10.00;99.90
2489;DHT22;1255;48.716;9.124;2024-03-23T05:21:50;10.00;99.90
2489;DHT22;1255;48.716;9.124;2024-03-23T05:24:16;10.00;99.90
2489;DHT22;1255;48.716;9.124;2024-03-23T05:26:43;9.90;99.90
2489;DHT22;1255;48.716;9.124;2024-03-23T05:29:08;9.90;99.90
2489;DHT22;1255;48.716;9.124;2024-03-23T05:31:37;9.80;99.90
2489;DHT22;1255;48.716;9.124;2024-03-23T05:34:03;9.80;99.90
2489;DHT22;1255;48.716;9.124;2024-03-23T05:36:30;9.70;99.90
2489;DHT22;1255;48.716;9.124;2024-03-23T05:38:56;9.70;99.90
2489;DHT22;1255;48.716;9.124;2024-03-23T05:41:22;9.70;99.90
2489;DHT22;1255;48.716;9.124;2024-03-23T05:43:49;9.70;99.90
2489;DHT22;1255;48.716;9.124;2024-03-23T05:46:16;9.70;99.90
2489;DHT22;1255;48.716;9.124;2024-03-23T05:48:44;9.60;99.90
2489;DHT22;1255;48.716;9.124;2024-03-23T05:51:11;9.60;99.90
2489;DHT22;1255;48.716;9.124;2024-03-23T05:53:38;9.60;99.90
2489;DHT22;1255;48.716;9.124;2024-03-23T05:56:05;9.50;99.90
2489;DHT22;1255;48.716;9.124;2024-03-23T05:58:31;9.50;99.90
2489;DHT22;1255;48.716;9.124;2024-03-23T06:00:59;9.40;99.90
2489;DHT22;1255;48.716;9.124;2024-03-23T06:03:26;9.40;99.90
2489;DHT22;1255;48.716;9.124;2024-03-23T06:05:54;9.30;99.90
2489;DHT22;1255;48.716;9.124;2024-03-23T06:08:20;9.20;99.90
2489;DHT22;1255;48.716;9.124;2024-03-23T06:10:47;9.20;99.90
2489;DHT22;1255;48.716;9.124;2024-03-23T06:13:13;9.10;99.90
2489;DHT22;1255;48.716;9.124;2024-03-23T06:15:40;9.10;99.90
2489;DHT22;1255;48.716;9.124;2024-03-23T06:18:06;9.00;99.90
2489;DHT22;1255;48.716;9.124;2024-03-23T06:20:33;8.90;99.90
2489;DHT22;1255;48.716;9.124;2024-03-23T06:23:00;8.90;99.90
2489;DHT22;1255;48.716;9.124;2024-03-23T06:25:27;8.80;99.90
2489;DHT22;1255;48.716;9.124;2024-03-23T06:27:53;8.80;99.90
2489;DHT22;1255;48.716;9.124;2024-03-23T06:30:20;8.70;99.90
2489;DHT22;1255;48.716;9.124;2024-03-23T06:32:46;8.70;99.90
2489;DHT22;1255;48.716;9.124;2024-03-23T06:35:12;8.70;99.90
2489;DHT22;1255;48.716;9.124;2024-03-23T06:37:38;8.60;99.90
2489;DHT22;1255;48.716;9.124;2024-03-23T06:40:08;8.60;99.90
2489;DHT22;1255;48.716;9.124;2024-03-23T06:42:35;8.60;99.90
2489;DHT22;1255;48.716;9.124;2024-03-23T06:45:02;8.60;99.90
2489;DHT22;1255;48.716;9.124;2024-03-23T06:47:30;8.60;99.90
2489;DHT22;1255;48.716;9.124;2024-03-23T06:49:57;8.60;99.90
2489;DHT22;1255;48.716;9.124;2024-03-23T06:52:22;8.60;99.90
2489;DHT22;1255;48.716;9.124;2024-03-23T06:54:49;8.60;99.90
2489;DHT22;1255;48.716;9.124;2024-03-23T06:57:16;8.60;99.90
2489;DHT22;1255;48.716;9.124;2024-03-23T06:59:43;8.60;99.90
2489;DHT22;1255;48.716;9.124;2024-03-23T07:02:09;8.60;99.90
2489;DHT22;1255;48.716;9.124;2024-03-23T07:04:35;8.60;99.90
2489;DHT22;1255;48.716;9.124;2024-03-23T07:07:01;8.70;99.90
2489;DHT22;1255;48.716;9.124;2024-03-23T07:09:28;8.70;99.90
2489;DHT22;1255;48.716;9.124;2024-03-23T07:11:54;8.80;99.90
2489;DHT22;1255;48.716;9.124;2024-03-23T07:14:23;8.90;99.90
2489;DHT22;1255;48.716;9.124;2024-03-23T07:16:49;9.00;99.90
2489;DHT22;1255;48.716;9.124;2024-03-23T07:19:17;9.00;99.90
2489;DHT22;1255;48.716;9.124;2024-03-23T07:21:43;9.00;99.90
2489;DHT22;1255;48.716;9.124;2024-03-23T07:24:10;9.00;99.90
2489;DHT22;1255;48.716;9.124;2024-03-23T07:26:36;9.00;99.90
2489;DHT22;1255;48.716;9.124;2024-03-23T07:29:03;9.00;99.90
2489;DHT22;1255;48.716;9.124;2024-03-23T07:31:30;8.90;99.90
2489;DHT22;1255;48.716;9.124;2024-03-23T07:33:57;9.10;99.90
2489;DHT22;1255;48.716;9.124;2024-03-23T07:36:22;9.40;99.90
2489;DHT22;1255;48.716;9.124;2024-03-23T07:38:50;9.50;99.90
2489;DHT22;1255;48.716;9.124;2024-03-23T07:41:16;9.50;99.90
2489;DHT22;1255;48.716;9.124;2024-03-23T07:43:44;9.40;99.90
2489;DHT22;1255;48.716;9.124;2024-03-23T07:46:10;9.30;99.90
2489;DHT22;1255;48.716;9.124;2024-03-23T07:48:39;9.30;99.90
2489;DHT22;1255;48.716;9.124;2024-03-23T07:51:07;9.30;99.90
2489;DHT22;1255;48.716;9.124;2024-03-23T07:53:34;9.30;99.90
2489;DHT22;1255;48.716;9.124;2024-03-23T07:56:02;9.40;99.90
2489;DHT22;1255;48.716;9.124;2024-03-23T07:58:29;9.40;99.90
2489;DHT22;1255;48.716;9.124;2024-03-23T08:00:56;9.30;99.90
2489;DHT22;1255;48.716;9.124;2024-03-23T08:03:23;9.50;99.90
2489;DHT22;1255;48.716;9.124;2024-03-23T08:05:50;10.00;99.90
2489;DHT22;1255;48.716;9.124;2024-03-23T08:08:16;10.50;99.90
2489;DHT22;1255;48.716;9.124;2024-03-23T08:10:49;10.60;99.90
2489;DHT22;1255;48.716;9.124;2024-03-23T08:13:16;10.30;99.90
2489;DHT22;1255;48.716;9.124;2024-03-23T08:15:42;9.90;99.90
2489;DHT22;1255;48.716;9.124;2024-03-23T08:18:10;9.70;99.90
2489;DHT22;1255;48.716;9.124;2024-03-23T08:20:35;9.60;99.90
2489;DHT22;1255;48.716;9.124;2024-03-23T08:23:04;9.40;99.90
2489;DHT22;1255;48.716;9.124;2024-03-23T08:25:31;9.40;99.90
2489;DHT22;1255;48.716;9.124;2024-03-23T08:27:58;9.30;99.90
2489;DHT22;1255;48.716;9.124;2024-03-23T08:30:23;9.20;99.90
2489;DHT22;1255;48.716;9.124;2024-03-23T08:32:50;9.10;99.90
2489;DHT22;1255;48.716;9.124;2024-03-23T08:35:16;9.10;99.90
2489;DHT22;1255;48.716;9.124;2024-03-23T08:37:43;9.40;99.90
2489;DHT22;1255;48.716;9.124;2024-03-23T08:40:11;9.80;99.90
2489;DHT22;1255;48.716;9.124;2024-03-23T08:42:38;9.80;99.90
2489;DHT22;1255;48.716;9.124;2024-03-23T08:45:04;9.50;99.90
2489;DHT22;1255;48.716;9.124;2024-03-23T08:47:34;9.30;99.90
2489;DHT22;1255;48.716;9.124;2024-03-23T08:50:00;9.30;99.90
2489;DHT22;1255;48.716;9.124;2024-03-23T08:52:27;9.50;99.90
2489;DHT22;1255;48.716;9.124;2024-03-23T08:54:54;9.90;99.90
2489;DHT22;1255;48.716;9.124;2024-03-23T08:57:22;10.00;99.90
2489;DHT22;1255;48.716;9.124;2024-03-23T08:59:48;10.20;99.90
2489;DHT22;1255;48.716;9.124;2024-03-23T09:02:15;10.20;99.90
2489;DHT22;1255;48.716;9.124;2024-03-23T09:04:41;10.20;99.90
2489;DHT22;1255;48.716;9.124;2024-03-23T09:07:07;10.00;99.90
2489;DHT22;1255;48.716;9.124;2024-03-23T09:09:33;9.80;99.90
2489;DHT22;1255;48.716;9.124;2024-03-23T09:12:00;9.50;99.90
2489;DHT22;1255;48.716;9.124;2024-03-23T09:14:27;9.30;99.90
2489;DHT22;1255;48.716;9.124;2024-03-23T09:16:55;9.20;99.90
2489;DHT22;1255;48.716;9.124;2024-03-23T09:19:21;9.10;99.90
2489;DHT22;1255;48.716;9.124;2024-03-23T09:21:52;9.10;99.90
2489;DHT22;1255;48.716;9.124;2024-03-23T09:24:18;9.00;99.90
2489;DHT22;1255;48.716;9.124;2024-03-23T09:26:45;9.10;99.90
2489;DHT22;1255;48.716;9.124;2024-03-23T09:29:11;9.10;99.90
2489;DHT22;1255;48.716;9.124;2024-03-23T09:31:41;9.30;99.90
2489;DHT22;1255;48.716;9.124;2024-03-23T09:34:07;10.10;99.90
2489;DHT22;1255;48.716;9.124;2024-03-23T09:36:34;11.90;99.90
2489;DHT22;1255;48.716;9.124;2024-03-23T09:39:00;12.90;99.90
2489;DHT22;1255;48.716;9.124;2024-03-23T09:41:31;13.50;99.90
2489;DHT22;1255;48.716;9.124;2024-03-23T09:44:00;13.30;99.90
2489;DHT22;1255;48.716;9.124;2024-03-23T09:46:28;12.30;99.90
2489;DHT22;1255;48.716;9.124;2024-03-23T09:48:55;11.40;99.90
2489;DHT22;1255;48.716;9.124;2024-03-23T09:51:23;10.90;99.90
2489;DHT22;1255;48.716;9.124;2024-03-23T09:53:52;10.60;99.90
2489;DHT22;1255;48.716;9.124;2024-03-23T09:56:19;10.30;99.90
2489;DHT22;1255;48.716;9.124;2024-03-23T09:58:45;10.10;99.90
2489;DHT22;1255;48.716;9.124;2024-03-23T10:01:12;9.80;99.90
2489;DHT22;1255;48.716;9.124;2024-03-23T10:03:44;9.80;99.90
2489;DHT22;1255;48.716;9.124;2024-03-23T10:06:12;10.10;99.90
2489;DHT22;1255;48.716;9.124;2024-03-23T10:08:38;11.50;99.90
2489;DHT22;1255;48.716;9.124;2024-03-23T10:11:15;12.50;99.90
2489;DHT22;1255;48.716;9.124;2024-03-23T10:13:42;12.90;99.90
2489;DHT22;1255;48.716;9.124;2024-03-23T10:16:11;13.80;99.90
2489;DHT22;1255;48.716;9.124;2024-03-23T10:18:38;15.00;98.80
2489;DHT22;1255;48.716;9.124;2024-03-23T10:21:09;15.80;97.10
2489;DHT22;1255;48.716;9.124;2024-03-23T10:23:38;15.90;95.60
2489;DHT22;1255;48.716;9.124;2024-03-23T10:26:13;15.60;95.10
2489;DHT22;1255;48.716;9.124;2024-03-23T10:28:56;16.10;95.30
2489;DHT22;1255;48.716;9.124;2024-03-23T10:31:34;16.30;94.20
2489;DHT22;1255;48.716;9.124;2024-03-23T10:34:07;16.90;94.80
2489;DHT22;1255;48.716;9.124;2024-03-23T10:36:43;17.50;92.30
2489;DHT22;1255;48.716;9.124;2024-03-23T10:39:17;17.50;91.20
2489;DHT22;1255;48.716;9.124;2024-03-23T10:41:49;16.40;92.10
2489;DHT22;1255;48.716;9.124;2024-03-23T10:44:17;15.00;93.30
2489;DHT22;1255;48.716;9.124;2024-03-23T10:46:45;14.10;94.40
2489;DHT22;1255;48.716;9.124;2024-03-23T10:49:10;13.30;95.70
2489;DHT22;1255;48.716;9.124;2024-03-23T10:51:37;12.60;96.00
2489;DHT22;1255;48.716;9.124;2024-03-23T10:54:04;12.00;96.80
2489;DHT22;1255;48.716;9.124;2024-03-23T10:56:35;11.50;99.50
2489;DHT22;1255;48.716;9.124;2024-03-23T10:59:03;10.70;99.90
2489;DHT22;1255;48.716;9.124;2024-03-23T11:01:32;9.90;99.90
2489;DHT22;1255;48.716;9.124;2024-03-23T11:03:58;9.30;99.90
2489;DHT22;1255;48.716;9.124;2024-03-23T11:06:35;8.80;99.90
2489;DHT22;1255;48.716;9.124;2024-03-23T11:09:01;8.20;99.90
2489;DHT22;1255;48.716;9.124;2024-03-23T11:11:28;7.80;99.90
2489;DHT22;1255;48.716;9.124;2024-03-23T11:13:59;7.80;99.90
2489;DHT22;1255;48.716;9.124;2024-03-23T11:16:27;8.00;99.90
2489;DHT22;1255;48.716;9.124;2024-03-23T11:18:54;8.50;99.90
2489;DHT22;1255;48.716;9.124;2024-03-23T11:21:53;9.30;99.90
2489;DHT22;1255;48.716;9.124;2024-03-23T11:24:20;9.90;99.90
2489;DHT22;1255;48.716;9.124;2024-03-23T11:26:47;10.90;99.90
2489;DHT22;1255;48.716;9.124;2024-03-23T11:29:15;12.30;99.90
2489;DHT22;1255;48.716;9.124;2024-03-23T11:31:46;13.80;99.90
2489;DHT22;1255;48.716;9.124;2024-03-23T11:34:12;14.20;99.90
2489;DHT22;1255;48.716;9.124;2024-03-23T11:36:39;14.20;99.90
2489;DHT22;1255;48.716;9.124;2024-03-23T11:39:12;14.50;99.90
2489;DHT22;1255;48.716;9.124;2024-03-23T11:41:47;14.80;99.90
2489;DHT22;1255;48.716;9.124;2024-03-23T11:44:19;15.10;99.90
2489;DHT22;1255;48.716;9.124;2024-03-23T11:46:46;15.30;99.90
2489;DHT22;1255;48.716;9.124;2024-03-23T11:49:22;15.00;99.90
2489;DHT22;1255;48.716;9.124;2024-03-23T11:51:49;14.80;99.90
2489;DHT22;1255;48.716;9.124;2024-03-23T11:54:15;14.80;99.90
2489;DHT22;1255;48.716;9.124;2024-03-23T11:56:54;14.40;99.90
2489;DHT22;1255;48.716;9.124;2024-03-23T11:59:32;13.80;99.90
2489;DHT22;1255;48.716;9.124;2024-03-23T12:01:59;12.70;99.70
2489;DHT22;1255;48.716;9.124;2024-03-23T12:04:26;12.10;99.90
2489;DHT22;1255;48.716;9.124;2024-03-23T12:07:14;12.00;99.90
2489;DHT22;1255;48.716;9.124;2024-03-23T12:09:40;12.00;99.90
2489;DHT22;1255;48.716;9.124;2024-03-23T12:12:10;11.90;99.90
2489;DHT22;1255;48.716;9.124;2024-03-23T12:14:37;11.90;99.90
2489;DHT22;1255;48.716;9.124;2024-03-23T12:17:09;11.80;99.90
2489;DHT22;1255;48.716;9.124;2024-03-23T12:19:35;11.50;99.50
2489;DHT22;1255;48.716;9.124;2024-03-23T12:22:03;11.20;99.90
2489;DHT22;1255;48.716;9.124;2024-03-23T12:24:29;11.00;99.20
2489;DHT22;1255;48.716;9.124;2024-03-23T12:27:00;10.70;99.10
2489;DHT22;1255;48.716;9.124;2024-03-23T12:29:27;10.50;99.90
2489;DHT22;1255;48.716;9.124;2024-03-23T12:31:55;10.50;99.70
2489;DHT22;1255;48.716;9.124;2024-03-23T12:34:21;10.40;98.50
2489;DHT22;1255;48.716;9.124;2024-03-23T12:36:48;10.30;99.20
2489;DHT22;1255;48.716;9.124;2024-03-23T12:39:13;10.20;99.20
2489;DHT22;1255;48.716;9.124;2024-03-23T12:41:40;10.00;99.90
2489;DHT22;1255;48.716;9.124;2024-03-23T12:44:06;9.80;99.60
2489;DHT22;1255;48.716;9.124;2024-03-23T12:46:34;9.60;99.90
2489;DHT22;1255;48.716;9.124;2024-03-23T12:49:01;9.60;99.90
2489;DHT22;1255;48.716;9.124;2024-03-23T12:51:27;9.40;99.90
2489;DHT22;1255;48.716;9.124;2024-03-23T12:53:53;9.30;99.90
2489;DHT22;1255;48.716;9.124;2024-03-23T12:56:20;9.20;99.90
2489;DHT22;1255;48.716;9.124;2024-03-23T12:58:46;9.20;99.90
2489;DHT22;1255;48.716;9.124;2024-03-23T13:01:16;9.00;99.90
2489;DHT22;1255;48.716;9.124;2024-03-23T13:03:42;8.90;99.90
2489;DHT22;1255;48.716;9.124;2024-03-23T13:06:11;9.00;99.90
2489;DHT22;1255;48.716;9.124;2024-03-23T13:08:37;9.10;99.90
2489;DHT22;1255;48.716;9.124;2024-03-23T13:11:03;9.20;99.90
2489;DHT22;1255;48.716;9.124;2024-03-23T13:13:29;9.30;99.90
2489;DHT22;1255;48.716;9.124;2024-03-23T13:15:57;9.30;99.90
2489;DHT22;1255;48.716;9.124;2024-03-23T13:18:23;9.90;99.90
2489;DHT22;1255;48.716;9.124;2024-03-23T13:20:49;11.20;99.90
2489;DHT22;1255;48.716;9.124;2024-03-23T13:23:17;11.90;99.20
2489;DHT22;1255;48.716;9.124;2024-03-23T13:25:49;11.70;96.30
2489;DHT22;1255;48.716;9.124;2024-03-23T13:28:15;10.70;95.70
2489;DHT22;1255;48.716;9.124;2024-03-23T13:30:50;10.00;95.90
2489;DHT22;1255;48.716;9.124;2024-03-23T13:33:15;9.30;96.10
2489;DHT22;1255;48.716;9.124;2024-03-23T13:35:49;9.00;96.00
2489;DHT22;1255;48.716;9.124;2024-03-23T13:38:16;9.10;95.80
2489;DHT22;1255;48.716;9.124;2024-03-23T13:40:51;10.10;95.40
2489;DHT22;1255;48.716;9.124;2024-03-23T13:43:16;11.40;94.40
2489;DHT22;1255;48.716;9.124;2024-03-23T13:45:43;12.50;93.80
2489;DHT22;1255;48.716;9.124;2024-03-23T13:48:09;13.40;92.40
2489;DHT22;1255;48.716;9.124;2024-03-23T13:50:36;13.80;92.80
2489;DHT22;1255;48.716;9.124;2024-03-23T13:53:02;14.20;93.80
2489;DHT22;1255;48.716;9.124;2024-03-23T13:55:30;14.60;92.80
2489;DHT22;1255;48.716;9.124;2024-03-23T13:57:56;15.00;92.70
2489;DHT22;1255;48.716;9.124;2024-03-23T14:00:23;14.80;92.20
2489;DHT22;1255;48.716;9.124;2024-03-23T14:02:50;14.20;92.50
2489;DHT22;1255;48.716;9.124;2024-03-23T14:05:19;13.20;93.90
2489;DHT22;1255;48.716;9.124;2024-03-23T14:07:45;12.40;94.80
2489;DHT22;1255;48.716;9.124;2024-03-23T14:10:12;11.80;95.60
2489;DHT22;1255;48.716;9.124;2024-03-23T14:12:40;11.10;96.60
2489;DHT22;1255;48.716;9.124;2024-03-23T14:15:07;10.40;98.50
2489;DHT22;1255;48.716;9.124;2024-03-23T14:17:34;9.70;99.90
2489;DHT22;1255;48.716;9.124;2024-03-23T14:20:01;9.30;99.90
2489;DHT22;1255;48.716;9.124;2024-03-23T14:22:31;9.50;99.90
2489;DHT22;1255;48.716;9.124;2024-03-23T14:24:58;10.00;99.90
2489;DHT22;1255;48.716;9.124;2024-03-23T14:27:24;10.40;99.90
2489;DHT22;1255;48.716;9.124;2024-03-23T14:29:52;10.90;99.90
2489;DHT22;1255;48.716;9.124;2024-03-23T14:32:18;11.10;99.90
2489;DHT22;1255;48.716;9.124;2024-03-23T14:34:44;11.10;99.90
2489;DHT22;1255;48.716;9.124;2024-03-23T14:37:10;11.40;99.90
2489;DHT22;1255;48.716;9.124;2024-03-23T14:39:37;11.60;99.90
2489;DHT22;1255;48.716;9.124;2024-03-23T14:42:05;11.50;99.90
2489;DHT22;1255;48.716;9.124;2024-03-23T14:44:31;11.80;99.90
2489;DHT22;1255;48.716;9.124;2024-03-23T14:46:59;12.10;99.90
2489;DHT22;1255;48.716;9.124;2024-03-23T14:49:25;12.40;99.60
2489;DHT22;1255;48.716;9.124;2024-03-23T14:51:52;12.20;98.50
2489;DHT22;1255;48.716;9.124;2024-03-23T14:54:18;11.50;97.90
2489;DHT22;1255;48.716;9.124;2024-03-23T14:56:44;11.00;98.80
2489;DHT22;1255;48.716;9.124;2024-03-23T14:59:12;10.60;99.00
2489;DHT22;1255;48.716;9.124;2024-03-23T15:01:38;10.30;99.90
2489;DHT22;1255;48.716;9.124;2024-03-23T15:04:06;10.00;99.90
2489;DHT22;1255;48.716;9.124;2024-03-23T15:06:32;9.50;99.90
2489;DHT22;1255;48.716;9.124;2024-03-23T15:08:59;9.00;99.90
2489;DHT22;1255;48.716;9.124;2024-03-23T15:11:25;8.40;99.90
2489;DHT22;1255;48.716;9.124;2024-03-23T15:13:52;8.10;99.90
2489;DHT22;1255;48.716;9.124;2024-03-23T15:16:17;7.90;99.90
2489;DHT22;1255;48.716;9.124;2024-03-23T15:18:45;8.10;99.90
2489;DHT22;1255;48.716;9.124;2024-03-23T15:21:12;8.30;99.90
2489;DHT22;1255;48.716;9.124;2024-03-23T15:23:45;8.80;99.90
2489;DHT22;1255;48.716;9.124;2024-03-23T15:26:11;9.20;99.90
2489;DHT22;1255;48.716;9.124;2024-03-23T15:28:37;9.50;99.90
2489;DHT22;1255;48.716;9.124;2024-03-23T15:31:04;9.90;99.90
2489;DHT22;1255;48.716;9.124;2024-03-23T15:33:31;10.20;99.90
2489;DHT22;1255;48.716;9.124;2024-03-23T15:35:58;10.40;99.90
2489;DHT22;1255;48.716;9.124;2024-03-23T15:38:26;10.50;99.90
2489;DHT22;1255;48.716;9.124;2024-03-23T15:40:52;10.40;99.90
2489;DHT22;1255;48.716;9.124;2024-03-23T15:43:19;10.40;99.90
2489;DHT22;1255;48.716;9.124;2024-03-23T15:45:47;10.20;99.90
2489;DHT22;1255;48.716;9.124;2024-03-23T15:48:19;9.80;99.90
2489;DHT22;1255;48.716;9.124;2024-03-23T15:50:50;9.50;99.90
2489;DHT22;1255;48.716;9.124;2024-03-23T15:53:18;9.20;99.90
2489;DHT22;1255;48.716;9.124;2024-03-23T15:55:45;9.00;99.90
2489;DHT22;1255;48.716;9.124;2024-03-23T15:58:11;8.90;99.90
2489;DHT22;1255;48.716;9.124;2024-03-23T16:00:37;8.80;99.90
2489;DHT22;1255;48.716;9.124;2024-03-23T16:03:04;8.70;99.90
2489;DHT22;1255;48.716;9.124;2024-03-23T16:05:30;8.40;99.90
2489;DHT22;1255;48.716;9.124;2024-03-23T16:07:57;7.80;99.90
2489;DHT22;1255;48.716;9.124;2024-03-23T16:10:22;7.80;99.90
2489;DHT22;1255;48.716;9.124;2024-03-23T16:12:50;8.20;99.90
2489;DHT22;1255;48.716;9.124;2024-03-23T16:15:16;8.60;99.90
2489;DHT22;1255;48.716;9.124;2024-03-23T16:17:44;8.90;99.90
2489;DHT22;1255;48.716;9.124;2024-03-23T16:20:11;9.00;99.90
2489;DHT22;1255;48.716;9.124;2024-03-23T16:22:38;9.10;99.90
2489;DHT22;1255;48.716;9.124;2024-03-23T16:25:04;8.80;99.90
2489;DHT22;1255;48.716;9.124;2024-03-23T16:27:33;8.50;99.90
2489;DHT22;1255;48.716;9.124;2024-03-23T16:30:00;8.30;99.90
2489;DHT22;1255;48.716;9.124;2024-03-23T16:32:26;8.20;99.90
2489;DHT22;1255;48.716;9.124;2024-03-23T16:34:54;8.00;99.90
2489;DHT22;1255;48.716;9.124;2024-03-23T16:37:21;7.90;99.90
2489;DHT22;1255;48.716;9.124;2024-03-23T16:39:47;7.80;99.90
2489;DHT22;1255;48.716;9.124;2024-03-23T16:42:14;7.60;99.90
2489;DHT22;1255;48.716;9.124;2024-03-23T16:44:40;7.60;99.90
2489;DHT22;1255;48.716;9.124;2024-03-23T16:47:09;7.50;99.90
2489;DHT22;1255;48.716;9.124;2024-03-23T16:49:35;7.60;99.90
2489;DHT22;1255;48.716;9.124;2024-03-23T16:52:02;7.60;99.90
2489;DHT22;1255;48.716;9.124;2024-03-23T16:54:28;7.60;99.90
2489;DHT22;1255;48.716;9.124;2024-03-23T16:56:55;7.40;99.90
2489;DHT22;1255;48.716;9.124;2024-03-23T16:59:20;7.30;99.90
2489;DHT22;1255;48.716;9.124;2024-03-23T17:01:47;7.20;99.90
2489;DHT22;1255;48.716;9.124;2024-03-23T17:04:14;7.10;99.90